createdAt,value
2018-06-01T00:00:38.693Z,0
2018-06-01T00:01:39.205Z,0
2018-06-01T00:02:39.197Z,0
2018-06-01T00:03:39.177Z,0
2018-06-01T00:04:38.901Z,0
2018-06-01T00:05:39.434Z,0
2018-06-01T00:06:39.425Z,0
2018-06-01T00:07:38.875Z,0
2018-06-01T00:08:38.864Z,0
2018-06-01T00:09:38.929Z,0
2018-06-01T00:10:39.112Z,0
2018-06-01T00:11:39.106Z,0
2018-06-01T00:12:39.236Z,0
2018-06-01T00:13:39.081Z,0
2018-06-01T00:14:38.802Z,0
2018-06-01T00:15:39.057Z,0
2018-06-01T00:16:39.042Z,0
2018-06-01T00:17:38.771Z,0
2018-06-01T00:18:38.500Z,0
2018-06-01T00:19:38.750Z,0
2018-06-01T00:20:38.752Z,0
2018-06-01T00:21:39.258Z,0
2018-06-01T00:22:38.723Z,0
2018-06-01T00:23:38.709Z,0
2018-06-01T00:24:38.433Z,0
2018-06-01T00:25:38.427Z,0
2018-06-01T00:26:39.207Z,0
2018-06-01T00:27:39.200Z,0
2018-06-01T00:28:39.192Z,0
2018-06-01T00:29:38.910Z,0
2018-06-01T00:30:38.907Z,0
2018-06-01T00:31:38.897Z,0
2018-06-01T00:32:38.620Z,0
2018-06-01T00:33:38.890Z,0
2018-06-01T00:34:39.133Z,0
2018-06-01T00:35:38.853Z,0
2018-06-01T00:36:38.846Z,0
2018-06-01T00:37:39.043Z,0
2018-06-01T00:38:38.554Z,0
2018-06-01T00:39:38.819Z,0
2018-06-01T00:40:38.804Z,0
2018-06-01T00:41:39.071Z,0
2018-06-01T00:42:38.514Z,0
2018-06-01T00:43:38.513Z,0
2018-06-01T00:44:38.497Z,0
2018-06-01T00:45:39.022Z,0
2018-06-01T00:46:38.748Z,0
2018-06-01T00:47:38.732Z,0
2018-06-01T00:48:38.502Z,0
2018-06-01T00:49:38.997Z,0
2018-06-01T00:50:38.700Z,0
2018-06-01T00:51:38.685Z,0
2018-06-01T00:52:38.682Z,0
2018-06-01T00:53:38.950Z,0
2018-06-01T00:54:38.396Z,0
2018-06-01T00:55:38.910Z,0
2018-06-01T00:56:38.379Z,0
2018-06-01T00:57:38.361Z,0
2018-06-01T00:58:38.622Z,0
2018-06-01T00:59:38.628Z,0
2018-06-01T01:00:38.068Z,0
2018-06-01T01:01:38.851Z,0
2018-06-01T01:02:38.577Z,0
2018-06-01T01:03:38.302Z,0
2018-06-01T01:04:38.613Z,0
2018-06-01T01:05:38.021Z,0
2018-06-01T01:06:38.270Z,0
2018-06-01T01:07:38.265Z,0
2018-06-01T01:08:37.984Z,0
2018-06-01T01:09:38.499Z,0
2018-06-01T01:10:38.763Z,0
2018-06-01T01:11:38.226Z,0
2018-06-01T01:12:38.212Z,0
2018-06-01T01:13:38.461Z,0
2018-06-01T01:14:38.505Z,0
2018-06-01T01:15:38.175Z,0
2018-06-01T01:16:38.169Z,0
2018-06-01T01:17:38.692Z,0
2018-06-01T01:18:38.414Z,0
2018-06-01T01:19:38.454Z,0
2018-06-01T01:20:38.394Z,0
2018-06-01T01:21:38.109Z,0
2018-06-01T01:22:38.641Z,0
2018-06-01T01:23:38.370Z,0
2018-06-01T01:24:38.084Z,0
2018-06-01T01:25:38.341Z,0
2018-06-01T01:26:38.327Z,0
2018-06-01T01:27:38.325Z,0
2018-06-01T01:28:38.620Z,0
2018-06-01T01:29:38.294Z,0
2018-06-01T01:30:38.025Z,0
2018-06-01T01:31:38.271Z,0
2018-06-01T01:32:38.534Z,0
2018-06-01T01:33:38.256Z,0
2018-06-01T01:34:38.506Z,0
2018-06-01T01:35:38.233Z,0
2018-06-01T01:36:38.222Z,0
2018-06-01T01:37:37.995Z,0
2018-06-01T01:38:38.473Z,0
2018-06-01T01:39:37.930Z,0
2018-06-01T01:40:37.915Z,0
2018-06-01T01:41:38.171Z,0
2018-06-01T01:42:37.630Z,0
2018-06-01T01:43:37.644Z,0
2018-06-01T01:44:37.879Z,0
2018-06-01T01:45:37.867Z,0
2018-06-01T01:46:38.118Z,0
2018-06-01T01:47:37.848Z,0
2018-06-01T01:48:38.101Z,0
2018-06-01T01:49:37.826Z,0
2018-06-01T01:50:38.085Z,0
2018-06-01T01:51:38.331Z,0
2018-06-01T01:52:38.074Z,0
2018-06-01T01:53:38.046Z,0
2018-06-01T01:54:38.039Z,0
2018-06-01T01:55:37.764Z,0
2018-06-01T01:56:37.751Z,0
2018-06-01T01:57:38.012Z,0
2018-06-01T01:58:38.006Z,0
2018-06-01T01:59:37.988Z,0
2018-06-01T02:00:37.711Z,0
2018-06-01T02:01:37.965Z,0
2018-06-01T02:02:38.229Z,0
2018-06-01T02:03:38.255Z,0
2018-06-01T02:04:37.935Z,0
2018-06-01T02:05:37.672Z,0
2018-06-01T02:06:38.179Z,0
2018-06-01T02:07:38.175Z,0
2018-06-01T02:08:37.943Z,0
2018-06-01T02:09:37.627Z,0
2018-06-01T02:10:37.867Z,0
2018-06-01T02:11:37.600Z,0
2018-06-01T02:12:37.855Z,0
2018-06-01T02:13:37.311Z,0
2018-06-01T02:14:37.564Z,0
2018-06-01T02:15:37.553Z,0
2018-06-01T02:16:38.079Z,0
2018-06-01T02:17:37.532Z,0
2018-06-01T02:18:37.791Z,0
2018-06-01T02:19:38.041Z,0
2018-06-01T02:20:37.771Z,0
2018-06-01T02:21:37.767Z,0
2018-06-01T02:22:37.490Z,0
2018-06-01T02:23:38.011Z,0
2018-06-01T02:24:37.197Z,0
2018-06-01T02:25:37.719Z,0
2018-06-01T02:26:37.443Z,0
2018-06-01T02:27:37.688Z,0
2018-06-01T02:28:37.706Z,0
2018-06-01T02:29:37.676Z,0
2018-06-01T02:30:37.404Z,0
2018-06-01T02:31:37.932Z,0
2018-06-01T02:32:37.387Z,0
2018-06-01T02:33:37.370Z,0
2018-06-01T02:34:37.889Z,0
2018-06-01T02:35:37.345Z,0
2018-06-01T02:36:37.803Z,0
2018-06-01T02:37:37.310Z,0
2018-06-01T02:38:37.582Z,0
2018-06-01T02:39:37.309Z,0
2018-06-01T02:40:37.578Z,4
2018-06-01T02:41:37.032Z,4
2018-06-01T02:42:37.546Z,4
2018-06-01T02:43:37.532Z,0
2018-06-01T02:44:37.252Z,0
2018-06-01T02:45:37.775Z,4
2018-06-01T02:46:37.496Z,4
2018-06-01T02:47:37.219Z,0
2018-06-01T02:48:37.734Z,4
2018-06-01T02:49:37.469Z,4
2018-06-01T02:50:37.456Z,4
2018-06-01T02:51:37.744Z,4
2018-06-01T02:52:37.703Z,4
2018-06-01T02:53:37.428Z,4
2018-06-01T02:54:37.420Z,4
2018-06-01T02:55:37.136Z,8
2018-06-01T02:56:37.135Z,8
2018-06-01T02:57:37.379Z,8
2018-06-01T02:58:37.103Z,12
2018-06-01T02:59:37.098Z,16
2018-06-01T03:00:37.080Z,16
2018-06-01T03:01:37.070Z,16
2018-06-01T03:02:37.329Z,16
2018-06-01T03:03:37.054Z,20
2018-06-01T03:04:37.305Z,20
2018-06-01T03:05:37.558Z,24
2018-06-01T03:06:37.024Z,32
2018-06-01T03:07:37.005Z,32
2018-06-01T03:08:36.999Z,36
2018-06-01T03:09:37.242Z,40
2018-06-01T03:10:36.984Z,44
2018-06-01T03:11:36.702Z,44
2018-06-01T03:13:37.484Z,48
2018-06-01T03:14:37.481Z,52
2018-06-01T03:15:37.197Z,52
2018-06-01T03:16:36.912Z,52
2018-06-01T03:17:37.437Z,56
2018-06-01T03:18:37.419Z,60
2018-06-01T03:19:37.415Z,68
2018-06-01T03:20:37.133Z,72
2018-06-01T03:21:37.125Z,80
2018-06-01T03:22:36.845Z,92
2018-06-01T03:23:37.361Z,104
2018-06-01T03:24:36.822Z,116
2018-06-01T03:25:36.821Z,128
2018-06-01T03:26:37.069Z,148
2018-06-01T03:27:37.065Z,160
2018-06-01T03:28:36.780Z,176
2018-06-01T03:29:37.368Z,188
2018-06-01T03:30:37.033Z,204
2018-06-01T03:31:36.766Z,224
2018-06-01T03:32:37.271Z,244
2018-06-01T03:33:36.999Z,264
2018-06-01T03:34:37.248Z,288
2018-06-01T03:35:36.972Z,312
2018-06-01T03:36:36.435Z,332
2018-06-01T03:37:36.976Z,356
2018-06-01T03:38:36.687Z,384
2018-06-01T03:39:36.669Z,404
2018-06-01T03:40:36.391Z,428
2018-06-01T03:41:37.185Z,448
2018-06-01T03:42:37.167Z,468
2018-06-01T03:43:36.901Z,492
2018-06-01T03:44:36.613Z,516
2018-06-01T03:45:36.869Z,536
2018-06-01T03:46:36.599Z,560
2018-06-01T03:47:36.849Z,580
2018-06-01T03:48:36.571Z,600
2018-06-01T03:49:36.297Z,624
2018-06-01T03:50:36.815Z,640
2018-06-01T03:51:37.088Z,648
2018-06-01T03:52:36.265Z,664
2018-06-01T03:53:36.888Z,672
2018-06-01T03:54:36.512Z,680
2018-06-01T03:55:36.760Z,684
2018-06-01T03:56:36.799Z,692
2018-06-01T03:57:36.747Z,704
2018-06-01T03:58:36.742Z,716
2018-06-01T03:59:36.992Z,732
2018-06-01T04:00:36.978Z,752
2018-06-01T04:01:36.965Z,772
2018-06-01T04:02:36.692Z,796
2018-06-01T04:03:36.682Z,820
2018-06-01T04:04:36.957Z,844
2018-06-01T04:05:36.402Z,876
2018-06-01T04:06:36.910Z,904
2018-06-01T04:07:36.639Z,940
2018-06-01T04:08:36.631Z,984
2018-06-01T04:09:36.625Z,1024
2018-06-01T04:10:36.605Z,1064
2018-06-01T04:11:36.337Z,1104
2018-06-01T04:12:36.857Z,1140
2018-06-01T04:13:36.576Z,1184
2018-06-01T04:14:36.842Z,1228
2018-06-01T04:15:36.554Z,1280
2018-06-01T04:16:36.283Z,1340
2018-06-01T04:17:36.835Z,1396
2018-06-01T04:18:36.263Z,1452
2018-06-01T04:19:36.418Z,1504
2018-06-01T04:20:36.505Z,1556
2018-06-01T04:21:36.494Z,1608
2018-06-01T04:22:36.219Z,1668
2018-06-01T04:23:36.747Z,1720
2018-06-01T04:24:36.463Z,1768
2018-06-01T04:25:36.189Z,1812
2018-06-01T04:26:36.457Z,1856
2018-06-01T04:27:36.450Z,1900
2018-06-01T04:28:36.159Z,1948
2018-06-01T04:29:35.882Z,2008
2018-06-01T04:30:36.134Z,2060
2018-06-01T04:31:36.390Z,2112
2018-06-01T04:32:36.381Z,2156
2018-06-01T04:33:36.417Z,2172
2018-06-01T04:34:36.638Z,2184
2018-06-01T04:35:36.090Z,2180
2018-06-01T04:36:36.611Z,2180
2018-06-01T04:37:36.589Z,2176
2018-06-01T04:38:36.050Z,2176
2018-06-01T04:39:36.307Z,2180
2018-06-01T04:40:36.719Z,2196
2018-06-01T04:41:36.294Z,2208
2018-06-01T04:42:36.019Z,2228
2018-06-01T04:43:36.274Z,2260
2018-06-01T04:44:36.520Z,2304
2018-06-01T04:45:36.248Z,2352
2018-06-01T04:46:36.240Z,2412
2018-06-01T04:47:35.960Z,2464
2018-06-01T04:48:36.479Z,2500
2018-06-01T04:49:36.486Z,2528
2018-06-01T04:50:35.938Z,2560
2018-06-01T04:51:36.191Z,2604
2018-06-01T04:52:36.182Z,2644
2018-06-01T04:53:36.224Z,2672
2018-06-01T04:54:35.904Z,2696
2018-06-01T04:55:36.159Z,2724
2018-06-01T04:56:36.143Z,2728
2018-06-01T04:57:36.134Z,2740
2018-06-01T04:58:35.860Z,2804
2018-06-01T04:59:36.115Z,2888
2018-06-01T05:00:36.374Z,2984
2018-06-01T05:01:35.825Z,3068
2018-06-01T05:02:35.814Z,3124
2018-06-01T05:03:36.061Z,3172
2018-06-01T05:04:35.800Z,3216
2018-06-01T05:05:35.788Z,3260
2018-06-01T05:06:35.774Z,3320
2018-06-01T05:07:36.030Z,3376
2018-06-01T05:08:36.032Z,3428
2018-06-01T05:09:35.745Z,3468
2018-06-01T05:10:35.995Z,3524
2018-06-01T05:11:35.722Z,3568
2018-06-01T05:12:35.983Z,3632
2018-06-01T05:13:35.973Z,3760
2018-06-01T05:14:35.958Z,3912
2018-06-01T05:15:36.212Z,4132
2018-06-01T05:16:36.244Z,4376
2018-06-01T05:17:35.930Z,4516
2018-06-01T05:18:36.178Z,4468
2018-06-01T05:19:35.905Z,4296
2018-06-01T05:20:35.908Z,4124
2018-06-01T05:21:36.165Z,4036
2018-06-01T05:22:35.615Z,4028
2018-06-01T05:23:36.142Z,4056
2018-06-01T05:24:35.860Z,4084
2018-06-01T05:25:35.855Z,4120
2018-06-01T05:26:35.574Z,4172
2018-06-01T05:27:36.097Z,4240
2018-06-01T05:28:35.828Z,4276
2018-06-01T05:29:35.814Z,4272
2018-06-01T05:30:35.806Z,4244
2018-06-01T05:31:36.087Z,4216
2018-06-01T05:32:36.057Z,4212
2018-06-01T05:33:35.774Z,4220
2018-06-01T05:34:35.762Z,4212
2018-06-01T05:35:35.227Z,4196
2018-06-01T05:36:36.018Z,4200
2018-06-01T05:37:35.745Z,4272
2018-06-01T05:38:35.984Z,4332
2018-06-01T05:39:35.194Z,4324
2018-06-01T05:40:35.974Z,4336
2018-06-01T05:41:35.705Z,4408
2018-06-01T05:42:35.947Z,4432
2018-06-01T05:43:35.954Z,4408
2018-06-01T05:44:35.948Z,4264
2018-06-01T05:45:35.404Z,4140
2018-06-01T05:46:35.921Z,4080
2018-06-01T05:47:35.381Z,3920
2018-06-01T05:48:35.896Z,3792
2018-06-01T05:49:35.897Z,3792
2018-06-01T05:50:35.613Z,3964
2018-06-01T05:51:35.883Z,4072
2018-06-01T05:52:35.883Z,4308
2018-06-01T05:53:35.591Z,4352
2018-06-01T05:54:35.681Z,4504
2018-06-01T05:55:35.573Z,4616
2018-06-01T05:56:35.824Z,4712
2018-06-01T05:57:35.557Z,4668
2018-06-01T05:58:35.597Z,4676
2018-06-01T05:59:35.275Z,4792
2018-06-01T06:00:35.524Z,4968
2018-06-01T06:01:35.262Z,5100
2018-06-01T06:02:35.773Z,5132
2018-06-01T06:03:35.812Z,5076
2018-06-01T06:04:35.272Z,4980
2018-06-01T06:05:35.751Z,4904
2018-06-01T06:06:35.477Z,4928
2018-06-01T06:07:35.207Z,4868
2018-06-01T06:08:35.727Z,4676
2018-06-01T06:09:35.709Z,4412
2018-06-01T06:10:35.701Z,4056
2018-06-01T06:11:35.433Z,3776
2018-06-01T06:12:35.696Z,3604
2018-06-01T06:13:34.903Z,3456
2018-06-01T06:14:35.398Z,3376
2018-06-01T06:15:34.862Z,3656
2018-06-01T06:16:35.658Z,3336
2018-06-01T06:17:35.398Z,3360
2018-06-01T06:18:35.367Z,3440
2018-06-01T06:19:34.822Z,3556
2018-06-01T06:20:35.669Z,3580
2018-06-01T06:21:35.337Z,3604
2018-06-01T06:22:35.565Z,3660
2018-06-01T06:23:35.070Z,3540
2018-06-01T06:24:35.321Z,3316
2018-06-01T06:25:35.613Z,3288
2018-06-01T06:26:35.568Z,3520
2018-06-01T06:27:35.559Z,3644
2018-06-01T06:28:35.017Z,3676
2018-06-01T06:29:35.278Z,3484
2018-06-01T06:30:35.260Z,3284
2018-06-01T06:31:35.175Z,3292
2018-06-01T06:32:35.270Z,3256
2018-06-01T06:33:35.019Z,3236
2018-06-01T06:34:35.487Z,3280
2018-06-01T06:35:35.219Z,3336
2018-06-01T06:36:35.215Z,3588
2018-06-01T06:37:35.500Z,3872
2018-06-01T06:38:35.130Z,4012
2018-06-01T06:39:35.182Z,4160
2018-06-01T06:40:35.169Z,4280
2018-06-01T06:41:35.434Z,4112
2018-06-01T06:42:34.897Z,4388
2018-06-01T06:43:35.418Z,4672
2018-06-01T06:44:35.137Z,4900
2018-06-01T06:45:34.864Z,4952
2018-06-01T06:46:34.853Z,5124
2018-06-01T06:47:35.116Z,5216
2018-06-01T06:48:35.374Z,5568
2018-06-01T06:49:35.091Z,4788
2018-06-01T06:50:35.351Z,4476
2018-06-01T06:51:35.354Z,4256
2018-06-01T06:52:34.535Z,4152
2018-06-01T06:53:35.066Z,4116
2018-06-01T06:54:35.055Z,4112
2018-06-01T06:55:34.788Z,4180
2018-06-01T06:56:35.295Z,4312
2018-06-01T06:57:34.762Z,4492
2018-06-01T06:58:35.020Z,4660
2018-06-01T06:59:35.279Z,4816
2018-06-01T07:00:35.270Z,4904
2018-06-01T07:01:34.732Z,4956
2018-06-01T07:02:35.246Z,4992
2018-06-01T07:03:34.984Z,5020
2018-06-01T07:04:35.252Z,5000
2018-06-01T07:05:34.957Z,4968
2018-06-01T07:06:35.215Z,4916
2018-06-01T07:07:34.678Z,4824
2018-06-01T07:08:35.204Z,4720
2018-06-01T07:09:34.941Z,4592
2018-06-01T07:10:34.720Z,4488
2018-06-01T07:11:34.643Z,4392
2018-06-01T07:12:35.164Z,4280
2018-06-01T07:13:35.166Z,4156
2018-06-01T07:14:35.147Z,4024
2018-06-01T07:15:34.666Z,3880
2018-06-01T07:16:34.871Z,3728
2018-06-01T07:17:34.862Z,3568
2018-06-01T07:18:34.851Z,3412
2018-06-01T07:19:35.120Z,3248
2018-06-01T07:20:34.838Z,3092
2018-06-01T07:21:35.093Z,2924
2018-06-01T07:22:34.653Z,2732
2018-06-01T07:23:34.822Z,2536
2018-06-01T07:24:34.549Z,2320
2018-06-01T07:25:34.796Z,2100
2018-06-01T07:26:34.801Z,1932
2018-06-01T07:27:34.793Z,1812
2018-06-01T07:28:35.121Z,1744
2018-06-01T07:29:34.772Z,1708
2018-06-01T07:30:34.760Z,1680
2018-06-01T07:31:35.020Z,1640
2018-06-01T07:32:34.484Z,1592
2018-06-01T07:33:34.733Z,1576
2018-06-01T07:34:34.993Z,1568
2018-06-01T07:35:34.715Z,1532
2018-06-01T07:36:34.719Z,1460
2018-06-01T07:37:34.707Z,1336
2018-06-01T07:38:34.704Z,1200
2018-06-01T07:39:34.685Z,1072
2018-06-01T07:40:34.417Z,976
2018-06-01T07:41:34.675Z,908
2018-06-01T07:42:34.932Z,864
2018-06-01T07:43:34.918Z,800
2018-06-01T07:44:34.914Z,700
2018-06-01T07:45:34.383Z,600
2018-06-01T07:46:34.103Z,528
2018-06-01T07:47:34.627Z,484
2018-06-01T07:48:34.350Z,356
2018-06-01T07:49:34.608Z,260
2018-06-01T07:50:34.603Z,232
2018-06-01T07:51:34.335Z,220
2018-06-01T07:52:34.056Z,216
2018-06-01T07:53:34.521Z,232
2018-06-01T07:54:34.685Z,268
2018-06-01T07:55:34.586Z,320
2018-06-01T07:56:34.283Z,348
2018-06-01T07:57:34.567Z,356
2018-06-01T07:58:34.551Z,324
2018-06-01T07:59:34.276Z,284
2018-06-01T08:00:34.250Z,244
2018-06-01T08:01:34.808Z,236
2018-06-01T08:02:34.498Z,248
2018-06-01T08:03:34.993Z,276
2018-06-01T08:04:34.758Z,316
2018-06-01T08:05:34.473Z,364
2018-06-01T08:06:34.265Z,396
2018-06-01T08:07:34.471Z,424
2018-06-01T08:08:34.747Z,452
2018-06-01T08:09:34.177Z,484
2018-06-01T08:10:34.167Z,508
2018-06-01T08:11:34.427Z,532
2018-06-01T08:12:34.417Z,536
2018-06-01T08:13:34.664Z,548
2018-06-01T08:14:34.677Z,564
2018-06-01T08:15:34.392Z,592
2018-06-01T08:16:34.657Z,628
2018-06-01T08:17:34.638Z,644
2018-06-01T08:18:33.837Z,652
2018-06-01T08:19:34.360Z,652
2018-06-01T08:20:34.083Z,636
2018-06-01T08:21:34.335Z,612
2018-06-01T08:22:34.352Z,612
2018-06-01T08:23:34.335Z,624
2018-06-01T08:24:34.059Z,640
2018-06-01T08:25:34.298Z,656
2018-06-01T08:26:34.034Z,664
2018-06-01T08:27:34.286Z,660
2018-06-01T08:28:34.272Z,644
2018-06-01T08:29:34.263Z,624
2018-06-01T08:30:34.525Z,612
2018-06-01T08:31:33.981Z,604
2018-06-01T08:32:34.342Z,616
2018-06-01T08:33:34.488Z,636
2018-06-01T08:34:33.961Z,656
2018-06-01T08:35:34.485Z,664
2018-06-01T08:36:34.204Z,668
2018-06-01T08:37:33.930Z,668
2018-06-01T08:38:34.381Z,672
2018-06-01T08:39:34.660Z,684
2018-06-01T08:40:34.440Z,696
2018-06-01T08:41:34.167Z,704
2018-06-01T08:42:34.409Z,712
2018-06-01T08:43:33.606Z,724
2018-06-01T08:44:34.396Z,752
2018-06-01T08:45:34.122Z,772
2018-06-01T08:46:34.240Z,792
2018-06-01T08:47:34.115Z,820
2018-06-01T08:48:34.106Z,840
2018-06-01T08:49:34.091Z,856
2018-06-01T08:50:33.564Z,880
2018-06-01T08:51:33.543Z,896
2018-06-01T08:52:34.600Z,916
2018-06-01T08:53:34.061Z,932
2018-06-01T08:54:34.049Z,952
2018-06-01T08:55:33.770Z,976
2018-06-01T08:56:34.032Z,988
2018-06-01T08:57:34.020Z,1012
2018-06-01T08:58:34.009Z,1032
2018-06-01T08:59:34.000Z,1048
2018-06-01T09:00:33.730Z,1052
2018-06-01T09:01:33.979Z,1072
2018-06-01T09:02:33.970Z,1112
2018-06-01T09:03:34.232Z,1156
2018-06-01T09:04:33.694Z,1200
2018-06-01T09:05:34.173Z,1244
2018-06-01T09:06:33.940Z,1292
2018-06-01T09:07:34.221Z,1352
2018-06-01T09:08:33.924Z,1420
2018-06-01T09:09:33.910Z,1500
2018-06-01T09:10:33.906Z,1588
2018-06-01T09:11:33.930Z,1696
2018-06-01T09:12:33.879Z,1828
2018-06-01T09:13:33.868Z,1984
2018-06-01T09:14:34.163Z,2172
2018-06-01T09:15:34.135Z,2408
2018-06-01T09:16:33.326Z,2688
2018-06-01T09:17:34.102Z,3052
2018-06-01T09:18:33.825Z,3444
2018-06-01T09:19:33.549Z,3840
2018-06-01T09:20:34.096Z,4244
2018-06-01T09:21:33.821Z,4608
2018-06-01T09:22:33.803Z,4872
2018-06-01T09:23:33.792Z,4952
2018-06-01T09:24:34.031Z,4848
2018-06-01T09:25:33.903Z,4564
2018-06-01T09:26:34.023Z,4232
2018-06-01T09:27:34.020Z,3928
2018-06-01T09:28:33.543Z,3704
2018-06-01T09:29:33.457Z,3588
2018-06-01T09:30:33.723Z,3584
2018-06-01T09:31:33.977Z,3708
2018-06-01T09:32:33.977Z,3940
2018-06-01T09:33:33.821Z,4240
2018-06-01T09:34:33.876Z,4520
2018-06-01T09:35:33.943Z,4732
2018-06-01T09:36:33.935Z,4876
2018-06-01T09:37:33.391Z,4960
2018-06-01T09:38:33.387Z,4988
2018-06-01T09:39:33.627Z,4948
2018-06-01T09:40:33.143Z,4864
2018-06-01T09:41:33.619Z,4740
2018-06-01T09:42:33.339Z,4612
2018-06-01T09:43:33.866Z,4472
2018-06-01T09:44:33.589Z,4384
2018-06-01T09:45:33.328Z,4340
2018-06-01T09:46:33.861Z,4356
2018-06-01T09:47:33.831Z,4400
2018-06-01T09:48:33.839Z,4440
2018-06-01T09:49:33.821Z,4492
2018-06-01T09:50:33.535Z,4556
2018-06-01T09:51:33.531Z,4640
2018-06-01T09:52:33.530Z,4756
2018-06-01T09:53:33.247Z,4944
2018-06-01T09:54:33.523Z,5208
2018-06-01T09:55:33.688Z,5540
2018-06-01T09:56:33.540Z,5988
2018-06-01T09:57:33.286Z,6512
2018-06-01T09:58:33.464Z,6992
2018-06-01T09:59:33.199Z,7376
2018-06-01T10:00:33.717Z,7672
2018-06-01T10:01:33.447Z,7888
2018-06-01T10:02:33.175Z,8040
2018-06-01T10:03:33.688Z,8140
2018-06-01T10:04:33.157Z,8208
2018-06-01T10:05:33.145Z,8260
2018-06-01T10:06:33.139Z,8352
2018-06-01T10:07:33.662Z,8424
2018-06-01T10:08:33.381Z,8400
2018-06-01T10:09:33.381Z,8332
2018-06-01T10:10:33.101Z,8216
2018-06-01T10:11:33.636Z,8264
2018-06-01T10:12:33.619Z,8480
2018-06-01T10:13:33.346Z,8880
2018-06-01T10:14:32.807Z,9400
2018-06-01T10:15:33.809Z,10128
2018-06-01T10:16:33.081Z,10784
2018-06-01T10:17:33.314Z,11636
2018-06-01T10:18:33.302Z,12652
2018-06-01T10:19:33.361Z,12840
2018-06-01T10:20:32.758Z,13408
2018-06-01T10:21:33.288Z,13356
2018-06-01T10:22:33.014Z,13864
2018-06-01T10:23:32.728Z,14312
2018-06-01T10:24:32.988Z,13040
2018-06-01T10:25:33.030Z,12960
2018-06-01T10:26:33.431Z,12836
2018-06-01T10:27:33.240Z,12924
2018-06-01T10:28:33.509Z,13216
2018-06-01T10:29:33.226Z,13396
2018-06-01T10:30:33.228Z,13604
2018-06-01T10:31:33.230Z,13912
2018-06-01T10:32:32.944Z,14640
2018-06-01T10:33:32.936Z,15912
2018-06-01T10:34:32.926Z,17152
2018-06-01T10:35:33.259Z,17984
2018-06-01T10:36:33.445Z,18752
2018-06-01T10:37:33.170Z,19520
2018-06-01T10:38:33.369Z,21152
2018-06-01T10:39:32.644Z,17696
2018-06-01T10:40:33.404Z,17184
2018-06-01T10:41:33.400Z,16960
2018-06-01T10:42:33.141Z,18240
2018-06-01T10:43:32.903Z,19552
2018-06-01T10:44:33.115Z,17312
2018-06-01T10:45:32.842Z,16192
2018-06-01T10:46:33.365Z,15556
2018-06-01T10:47:32.828Z,15028
2018-06-01T10:48:33.401Z,15344
2018-06-01T10:49:33.431Z,15156
2018-06-01T10:50:33.346Z,15056
2018-06-01T10:51:33.328Z,13876
2018-06-01T10:52:32.793Z,12976
2018-06-01T10:53:33.329Z,13180
2018-06-01T10:54:32.840Z,14972
2018-06-01T10:55:33.250Z,12924
2018-06-01T10:56:33.057Z,11636
2018-06-01T10:57:33.035Z,11104
2018-06-01T10:58:33.024Z,14636
2018-06-01T10:59:33.036Z,31136
2018-06-01T11:00:32.748Z,16256
2018-06-01T11:01:33.339Z,12956
2018-06-01T11:02:32.997Z,12032
2018-06-01T11:03:32.735Z,12500
2018-06-01T11:04:32.722Z,12812
2018-06-01T11:05:32.982Z,12164
2018-06-01T11:06:32.973Z,11576
2018-06-01T11:07:32.976Z,12584
2018-06-01T11:08:32.968Z,14292
2018-06-01T11:09:33.246Z,18496
2018-06-01T11:10:32.432Z,18144
2018-06-01T11:11:32.957Z,14024
2018-06-01T11:12:32.951Z,12336
2018-06-01T11:13:32.416Z,11448
2018-06-01T11:14:33.554Z,13144
2018-06-01T11:15:32.713Z,16704
2018-06-01T11:16:32.402Z,17920
2018-06-01T11:17:32.390Z,27264
2018-06-01T11:18:32.646Z,23872
2018-06-01T11:19:32.644Z,51872
2018-06-01T11:20:33.168Z,50240
2018-06-01T11:21:32.731Z,24352
2018-06-01T11:22:32.635Z,33632
2018-06-01T11:23:32.617Z,32128
2018-06-01T11:24:33.180Z,26976
2018-06-01T11:25:33.161Z,19712
2018-06-01T11:26:33.141Z,21728
2018-06-01T11:27:33.140Z,26880
2018-06-01T11:28:32.856Z,26432
2018-06-01T11:29:32.323Z,21280
2018-06-01T11:30:32.983Z,20096
2018-06-01T11:31:32.584Z,21696
2018-06-01T11:32:33.109Z,25216
2018-06-01T11:33:32.843Z,23936
2018-06-01T11:34:32.833Z,26528
2018-06-01T11:35:33.098Z,30144
2018-06-01T11:36:32.828Z,33760
2018-06-01T11:37:32.551Z,29408
2018-06-01T11:38:32.290Z,23648
2018-06-01T11:39:32.821Z,26784
2018-06-01T11:40:32.814Z,23648
2018-06-01T11:41:32.812Z,35392
2018-06-01T11:42:32.601Z,27776
2018-06-01T11:43:32.797Z,33920
2018-06-01T11:44:32.537Z,29856
2018-06-01T11:45:32.544Z,33056
2018-06-01T11:46:33.051Z,48768
2018-06-01T11:47:32.810Z,33312
2018-06-01T11:48:33.055Z,37472
2018-06-01T11:49:33.040Z,43680
2018-06-01T11:50:32.510Z,43104
2018-06-01T11:51:32.672Z,37760
2018-06-01T11:52:32.505Z,66048
2018-06-01T11:53:33.033Z,43168
2018-06-01T11:54:32.763Z,57120
2018-06-01T11:55:33.031Z,38048
2018-06-01T11:56:33.021Z,79552
2018-06-01T11:57:33.073Z,33824
2018-06-01T11:58:32.764Z,54816
2018-06-01T11:59:32.223Z,83488
2018-06-01T12:00:32.219Z,58592
2018-06-01T12:01:32.219Z,78496
2018-06-01T12:02:32.689Z,75520
2018-06-01T12:03:32.742Z,64160
2018-06-01T12:04:32.743Z,57120
2018-06-01T12:05:33.004Z,49408
2018-06-01T12:06:32.481Z,45760
2018-06-01T12:07:32.741Z,17664
2018-06-01T12:08:32.480Z,20096
2018-06-01T12:09:33.012Z,42528
2018-06-01T12:10:33.013Z,20000
2018-06-01T12:11:32.748Z,20000
2018-06-01T12:12:32.492Z,20320
2018-06-01T12:13:33.008Z,14336
2018-06-01T12:14:33.013Z,13632
2018-06-01T12:15:32.494Z,12968
2018-06-01T12:16:33.071Z,11716
2018-06-01T12:17:33.082Z,10264
2018-06-01T12:18:33.017Z,8704
2018-06-01T12:19:32.485Z,8368
2018-06-01T12:20:32.761Z,7872
2018-06-01T12:21:32.745Z,7296
2018-06-01T12:22:32.751Z,7152
2018-06-01T12:23:32.739Z,7872
2018-06-01T12:24:32.745Z,9156
2018-06-01T12:25:32.477Z,11380
2018-06-01T12:26:32.209Z,18112
2018-06-01T12:27:32.739Z,21376
2018-06-01T12:28:32.466Z,28448
2018-06-01T12:29:33.132Z,34592
2018-06-01T12:30:32.460Z,34912
2018-06-01T12:31:32.194Z,48512
2018-06-01T12:32:32.721Z,81440
2018-06-01T12:33:32.457Z,59680
2018-06-01T12:34:32.457Z,26848
2018-06-01T12:35:32.713Z,24288
2018-06-01T12:36:32.980Z,16544
2018-06-01T12:37:32.788Z,16384
2018-06-01T12:38:33.182Z,15352
2018-06-01T12:39:32.706Z,12672
2018-06-01T12:40:32.976Z,11888
2018-06-01T12:41:33.004Z,9500
2018-06-01T12:42:32.979Z,8996
2018-06-01T12:43:32.710Z,8536
2018-06-01T12:44:32.164Z,8648
2018-06-01T12:45:32.960Z,8684
2018-06-01T12:46:32.704Z,8620
2018-06-01T12:47:32.453Z,8764
2018-06-01T12:48:32.420Z,8952
2018-06-01T12:49:32.686Z,9208
2018-06-01T12:50:32.691Z,9532
2018-06-01T12:51:32.681Z,9948
2018-06-01T12:52:32.688Z,11884
2018-06-01T12:53:32.880Z,14200
2018-06-01T12:54:32.940Z,19264
2018-06-01T12:55:32.674Z,23840
2018-06-01T12:56:32.400Z,29728
2018-06-01T12:57:32.419Z,32064
2018-06-01T12:58:32.927Z,68832
2018-06-01T12:59:32.720Z,71296
2018-06-01T13:00:32.652Z,77536
2018-06-01T13:01:32.399Z,80768
2018-06-01T13:02:32.667Z,82272
2018-06-01T13:03:32.747Z,81280
2018-06-01T13:04:32.644Z,80544
2018-06-01T13:05:32.912Z,80000
2018-06-01T13:06:32.384Z,79232
2018-06-01T13:07:32.385Z,74784
2018-06-01T13:08:32.640Z,66432
2018-06-01T13:09:32.960Z,38496
2018-06-01T13:10:32.660Z,17504
2018-06-01T13:11:32.646Z,13900
2018-06-01T13:12:32.385Z,13420
2018-06-01T13:13:32.656Z,13536
2018-06-01T13:14:32.920Z,13160
2018-06-01T13:15:32.657Z,10228
2018-06-01T13:16:32.388Z,8604
2018-06-01T13:17:32.653Z,8064
2018-06-01T13:18:32.662Z,7888
2018-06-01T13:19:32.390Z,7296
2018-06-01T13:20:32.811Z,6532
2018-06-01T13:21:32.653Z,6368
2018-06-01T13:22:32.652Z,6608
2018-06-01T13:23:32.652Z,7544
2018-06-01T13:24:32.656Z,8468
2018-06-01T13:25:32.653Z,10980
2018-06-01T13:26:32.380Z,13540
2018-06-01T13:27:32.908Z,13212
2018-06-01T13:28:32.913Z,12360
2018-06-01T13:29:32.402Z,16064
2018-06-01T13:30:32.657Z,26400
2018-06-01T13:31:32.642Z,29760
2018-06-01T13:32:32.922Z,31360
2018-06-01T13:33:32.446Z,20608
2018-06-01T13:34:32.899Z,13756
2018-06-01T13:35:32.373Z,14976
2018-06-01T13:36:32.373Z,16448
2018-06-01T13:37:32.631Z,27264